createdAt,value
2023-02-23T00:01:38.576Z,100395.91
2023-02-23T00:04:05.337Z,100398.81
2023-02-23T00:06:33.938Z,100397.97
2023-02-23T00:09:01.307Z,100396.13
2023-02-23T00:11:28.703Z,100394.53
2023-02-23T00:13:56.900Z,100400.88
2023-02-23T00:16:25.484Z,100395.63
2023-02-23T00:18:55.271Z,100394.66
2023-02-23T00:21:32.344Z,100394.66
2023-02-23T00:24:01.794Z,100391.38
2023-02-23T00:26:33.861Z,100391.50
2023-02-23T00:29:06.180Z,100394.19
2023-02-23T00:31:32.880Z,100403.06
2023-02-23T00:34:02.544Z,100396.13
2023-02-23T00:36:32.011Z,100397.97
2023-02-23T00:39:00.825Z,100396.22
2023-02-23T00:41:30.636Z,100403.56
2023-02-23T00:44:00.959Z,100401.00
2023-02-23T00:46:30.249Z,100394.78
2023-02-23T00:48:59.094Z,100402.09
2023-02-23T00:51:27.806Z,100401.38
2023-02-23T00:53:55.250Z,100404.91
2023-02-23T00:56:22.215Z,100408.44
2023-02-23T00:58:49.084Z,100405.13
2023-02-23T01:01:18.052Z,100408.91
2023-02-23T01:03:45.453Z,100412.69
2023-02-23T01:06:14.853Z,100407.31
2023-02-23T01:08:44.116Z,100406.50
2023-02-23T01:11:16.000Z,100410.47
2023-02-23T01:13:45.051Z,100410.38
2023-02-23T01:16:15.436Z,100410.75
2023-02-23T01:18:44.609Z,100402.91
2023-02-23T01:21:19.358Z,100405.84
2023-02-23T01:23:46.074Z,100414.00
2023-02-23T01:26:21.194Z,100406.06
2023-02-23T01:28:56.445Z,100413.41
2023-02-23T01:31:24.984Z,100411.53
2023-02-23T01:33:56.296Z,100405.56
2023-02-23T01:36:23.121Z,100408.63
2023-02-23T01:38:49.842Z,100409.72
2023-02-23T01:41:17.303Z,100404.34
2023-02-23T01:44:08.384Z,100405.44
2023-02-23T01:46:39.158Z,100403.72
2023-02-23T01:49:10.749Z,100409.09
2023-02-23T01:51:43.010Z,100397.97
2023-02-23T01:54:15.961Z,100396.28
2023-02-23T01:56:47.593Z,100405.28
2023-02-23T01:59:15.894Z,100401.03
2023-02-23T02:01:43.782Z,100400.16
2023-02-23T02:04:16.481Z,100408.34
2023-02-23T02:06:45.824Z,100399.31
2023-02-23T02:09:19.620Z,100401.88
2023-02-23T02:11:54.113Z,100405.41
2023-02-23T02:14:29.260Z,100393.00
2023-02-23T02:17:27.566Z,100391.50
2023-02-23T02:20:06.175Z,100393.97
2023-02-23T02:22:42.500Z,100398.44
2023-02-23T02:25:14.978Z,100396.75
2023-02-23T02:27:50.476Z,100398.56
2023-02-23T02:30:40.785Z,100394.19
2023-02-23T02:33:19.172Z,100389.81
2023-02-23T02:36:04.237Z,100398.69
2023-02-23T02:38:40.966Z,100399.78
2023-02-23T02:41:28.488Z,100399.03
2023-02-23T02:44:09.115Z,100395.41
2023-02-23T02:46:40.460Z,100395.53
2023-02-23T02:49:17.776Z,100404.38
2023-02-23T02:52:12.139Z,100399.03
2023-02-23T02:54:43.915Z,100399.91
2023-02-23T02:57:12.993Z,100394.53
2023-02-23T03:00:07.158Z,100399.91
2023-02-23T03:02:56.298Z,100407.81
2023-02-23T03:05:47.660Z,100406.13
2023-02-23T03:09:07.192Z,100403.44
2023-02-23T03:11:59.897Z,100407.81
2023-02-23T03:15:11.318Z,100402.56
2023-02-23T03:18:12.790Z,100407.06
2023-02-23T03:21:05.412Z,100409.63
2023-02-23T03:24:17.189Z,100401.72
2023-02-23T03:27:31.417Z,100408.16
2023-02-23T03:30:40.075Z,100418.03
2023-02-23T03:33:36.944Z,100413.66
2023-02-23T03:36:29.416Z,100419.22
2023-02-23T03:39:25.973Z,100416.78
2023-02-23T03:42:14.300Z,100412.38
2023-02-23T03:45:03.211Z,100421.28
2023-02-23T03:47:56.638Z,100420.41
2023-02-23T03:50:48.619Z,100416.78
2023-02-23T03:53:38.031Z,100417.88
2023-02-23T03:56:25.377Z,100420.41
2023-02-23T03:59:15.603Z,100423.09
2023-02-23T04:02:00.981Z,100420.66
2023-02-23T04:04:47.949Z,100419.94
2023-02-23T04:07:36.879Z,100423.56
2023-02-23T04:10:23.577Z,100419.16
2023-02-23T04:13:12.960Z,100422.72
2023-02-23T04:15:44.224Z,100424.53
2023-02-23T04:18:14.921Z,100421.34
2023-02-23T04:20:41.538Z,100424.00
2023-02-23T04:23:08.295Z,100421.22
2023-02-23T04:25:35.438Z,100415.97
2023-02-23T04:28:02.021Z,100421.47
2023-02-23T04:30:29.631Z,100429.38
2023-02-23T04:32:59.173Z,100425.97
2023-02-23T04:35:27.859Z,100427.78
2023-02-23T04:37:54.677Z,100426.94
2023-02-23T04:40:23.985Z,100429.63
2023-02-23T04:42:51.244Z,100429.63
2023-02-23T04:45:18.464Z,100436.88
2023-02-23T04:47:45.089Z,100431.53
2023-02-23T04:50:12.835Z,100426.31
2023-02-23T04:52:39.712Z,100432.50
2023-02-23T04:55:08.435Z,100426.41
2023-02-23T04:57:35.735Z,100421.28
2023-02-23T05:00:04.413Z,100426.78
2023-02-23T05:02:32.055Z,100428.56
2023-02-23T05:04:58.818Z,100426.88
2023-02-23T05:07:25.659Z,100427.72
2023-02-23T05:09:52.309Z,100425.28
2023-02-23T05:12:18.865Z,100425.28
2023-02-23T05:14:45.441Z,100427.09
2023-02-23T05:17:12.106Z,100431.59
2023-02-23T05:19:38.695Z,100430.00
2023-02-23T05:22:05.265Z,100440.72
2023-02-23T05:24:31.883Z,100435.34
2023-02-23T05:26:58.991Z,100448.94
2023-02-23T05:29:25.828Z,100437.28
2023-02-23T05:31:52.531Z,100438.13
2023-02-23T05:34:19.134Z,100447.03
2023-02-23T05:36:45.726Z,100446.41
2023-02-23T05:39:12.297Z,100447.34
2023-02-23T05:41:38.938Z,100441.16
2023-02-23T05:44:05.588Z,100444.81
2023-02-23T05:46:32.338Z,100451.88
2023-02-23T05:49:00.986Z,100450.16
2023-02-23T05:51:29.456Z,100448.31
2023-02-23T05:53:56.039Z,100451.00
2023-02-23T05:56:22.792Z,100455.38
2023-02-23T05:58:57.958Z,100458.19
2023-02-23T06:01:25.811Z,100461.81
2023-02-23T06:03:52.658Z,100456.34
2023-02-23T06:06:19.510Z,100461.59
2023-02-23T06:08:46.341Z,100466.22
2023-02-23T06:11:13.290Z,100467.06
2023-02-23T06:13:40.380Z,100470.59
2023-02-23T06:16:08.636Z,100473.03
2023-02-23T06:18:35.804Z,100473.03
2023-02-23T06:21:03.963Z,100481.69
2023-02-23T06:23:31.672Z,100489.72
2023-02-23T06:25:59.532Z,100493.28
2023-02-23T06:28:27.794Z,100488.88
2023-02-23T06:30:55.575Z,100494.00
2023-02-23T06:33:22.756Z,100491.13
2023-02-23T06:35:49.392Z,100496.47
2023-02-23T06:38:16.005Z,100499.03
2023-02-23T06:40:43.339Z,100500.50
2023-02-23T06:43:10.106Z,100506.50
2023-02-23T06:45:36.895Z,100506.19
2023-02-23T06:48:03.979Z,100507.78
2023-02-23T06:50:30.761Z,100512.78
2023-02-23T06:52:57.677Z,100515.13
2023-02-23T06:55:24.531Z,100508.69
2023-02-23T06:57:53.463Z,100514.56
2023-02-23T07:00:20.535Z,100507.91
2023-02-23T07:02:47.277Z,100510.97
2023-02-23T07:05:13.844Z,100510.84
2023-02-23T07:07:40.479Z,100511.47
2023-02-23T07:10:07.519Z,100519.41
2023-02-23T07:12:34.118Z,100517.34
2023-02-23T07:15:00.726Z,100516.28
2023-02-23T07:17:27.360Z,100519.69
2023-02-23T07:19:54.013Z,100518.50
2023-02-23T07:22:20.817Z,100520.91
2023-02-23T07:24:48.217Z,100522.50
2023-02-23T07:27:14.741Z,100511.69
2023-02-23T07:29:41.314Z,100515.97
2023-02-23T07:32:07.958Z,100521.31
2023-02-23T07:34:34.585Z,100529.47
2023-02-23T07:37:01.252Z,100532.03
2023-02-23T07:39:27.889Z,100521.09
2023-02-23T07:41:54.400Z,100526.09
2023-02-23T07:44:21.069Z,100521.25
2023-02-23T07:46:47.685Z,100519.31
2023-02-23T07:49:14.353Z,100517.84
2023-02-23T07:51:41.355Z,100523.84
2023-02-23T07:54:07.965Z,100521.78
2023-02-23T07:56:35.440Z,100518.63
2023-02-23T07:59:03.006Z,100520.09
2023-02-23T08:01:29.677Z,100522.28
2023-02-23T08:03:56.409Z,100517.69
2023-02-23T08:06:23.007Z,100523.78
2023-02-23T08:08:49.588Z,100521.97
2023-02-23T08:11:16.364Z,100514.63
2023-02-23T08:13:43.245Z,100519.78
2023-02-23T08:16:10.001Z,100521.00
2023-02-23T08:18:36.691Z,100520.53
2023-02-23T08:21:05.010Z,100529.53
2023-02-23T08:23:33.271Z,100532.00
2023-02-23T08:26:01.156Z,100529.81
2023-02-23T08:28:28.817Z,100530.44
2023-02-23T08:30:55.594Z,100538.97
2023-02-23T08:33:22.747Z,100532.38
2023-02-23T08:35:49.317Z,100540.81
2023-02-23T08:38:16.617Z,100534.72
2023-02-23T08:40:43.461Z,100534.97
2023-02-23T08:43:10.282Z,100535.31
2023-02-23T08:45:39.599Z,100534.22
2023-02-23T08:48:07.688Z,100538.25
2023-02-23T08:50:34.423Z,100540.06
2023-02-23T08:53:01.037Z,100541.41
2023-02-23T08:55:27.618Z,100539.34
2023-02-23T08:57:54.261Z,100546.91
2023-02-23T09:00:21.307Z,100541.16
2023-02-23T09:02:48.327Z,100546.75
2023-02-23T09:05:15.500Z,100544.94
2023-02-23T09:07:45.178Z,100538.19
2023-02-23T09:10:17.496Z,100543.56
2023-02-23T09:12:44.029Z,100538.69
2023-02-23T09:15:12.456Z,100545.28
2023-02-23T09:17:39.136Z,100550.16
2023-02-23T09:20:06.635Z,100546.81
2023-02-23T09:22:36.809Z,100548.28
2023-02-23T09:25:03.835Z,100547.78
2023-02-23T09:27:30.611Z,100552.75
2023-02-23T09:29:57.252Z,100548.25
2023-02-23T09:32:24.052Z,100555.22
2023-02-23T09:34:52.538Z,100555.69
2023-02-23T09:37:19.414Z,100555.69
2023-02-23T09:39:46.123Z,100550.91
2023-02-23T09:42:35.926Z,100558.47
2023-02-23T09:45:31.091Z,100550.59
2023-02-23T09:48:12.765Z,100560.00
2023-02-23T09:50:42.790Z,100557.31
2023-02-23T09:53:24.443Z,100551.66
2023-02-23T09:55:54.802Z,100555.59
2023-02-23T09:58:24.990Z,100556.88
2023-02-23T10:01:10.078Z,100554.47
2023-02-23T10:04:05.917Z,100557.59
2023-02-23T10:06:33.725Z,100550.00
2023-02-23T10:09:14.567Z,100555.84
2023-02-23T10:12:01.292Z,100553.38
2023-02-23T10:14:40.102Z,100557.84
2023-02-23T10:17:06.561Z,100550.25
2023-02-23T10:19:47.907Z,100554.63
2023-02-23T10:22:16.011Z,100545.44
2023-02-23T10:24:48.614Z,100549.59
2023-02-23T10:27:21.336Z,100552.13
2023-02-23T10:30:00.812Z,100552.00
2023-02-23T10:32:48.825Z,100549.31
2023-02-23T10:35:17.696Z,100538.88
2023-02-23T10:37:45.398Z,100537.66
2023-02-23T10:40:23.011Z,100535.53
2023-02-23T10:42:50.880Z,100533.47
2023-02-23T10:45:24.734Z,100534.56
2023-02-23T10:48:03.985Z,100525.63
2023-02-23T10:50:31.883Z,100523.69
2023-02-23T10:53:16.407Z,100521.44
2023-02-23T10:55:45.427Z,100522.63
2023-02-23T10:58:19.216Z,100515.25
2023-02-23T11:01:03.957Z,100512.03
2023-02-23T11:03:35.674Z,100512.47
2023-02-23T11:06:02.692Z,100508.38
2023-02-23T11:08:37.661Z,100508.13
2023-02-23T11:11:08.294Z,100507.13
2023-02-23T11:13:41.000Z,100498.06
2023-02-23T11:16:14.647Z,100504.44
2023-02-23T11:18:56.936Z,100498.72
2023-02-23T11:21:35.885Z,100495.16
2023-02-23T11:24:22.440Z,100500.25
2023-02-23T11:26:52.153Z,100497.31
2023-02-23T11:29:35.336Z,100499.97
2023-02-23T11:32:19.196Z,100490.91
2023-02-23T11:34:49.309Z,100493.31
2023-02-23T11:37:20.086Z,100487.78
2023-02-23T11:40:01.082Z,100485.38
2023-02-23T11:42:33.503Z,100488.22
2023-02-23T11:45:07.702Z,100483.06
2023-02-23T11:47:39.945Z,100477.44
2023-02-23T11:50:08.099Z,100478.72
2023-02-23T11:52:36.449Z,100475.59
2023-02-23T11:55:07.063Z,100475.44
2023-02-23T11:57:36.277Z,100475.31
2023-02-23T12:00:12.053Z,100478.03
2023-02-23T12:02:49.193Z,100477.38
2023-02-23T12:05:23.249Z,100474.78
2023-02-23T12:08:03.032Z,100474.19
2023-02-23T12:10:51.938Z,100461.00
2023-02-23T12:13:48.171Z,100463.44
2023-02-23T12:16:30.993Z,100465.28
2023-02-23T12:19:08.897Z,100460.91
2023-02-23T12:21:44.309Z,100453.03
2023-02-23T12:24:37.525Z,100450.63
2023-02-23T12:27:04.011Z,100451.06
2023-02-23T12:29:40.168Z,100448.78
2023-02-23T12:32:14.545Z,100449.22
2023-02-23T12:34:55.124Z,100432.94
2023-02-23T12:37:42.868Z,100430.09
2023-02-23T12:40:42.067Z,100426.13
2023-02-23T12:43:18.800Z,100426.56
2023-02-23T12:45:52.664Z,100425.97
2023-02-23T12:48:48.238Z,100421.16
2023-02-23T12:51:19.088Z,100418.03
2023-02-23T12:53:45.828Z,100412.06
2023-02-23T12:56:34.055Z,100415.94
2023-02-23T12:59:13.439Z,100408.69
2023-02-23T13:02:00.834Z,100403.16
2023-02-23T13:05:13.143Z,100405.97
2023-02-23T13:08:04.824Z,100397.03
2023-02-23T13:10:39.173Z,100403.44
2023-02-23T13:13:20.777Z,100392.75
2023-02-23T13:16:12.350Z,100382.25
2023-02-23T13:19:20.891Z,100388.63
2023-02-23T13:22:19.458Z,100391.69
2023-02-23T13:24:49.062Z,100383.03
2023-02-23T13:27:27.292Z,100376.78
2023-02-23T13:29:56.792Z,100380.97
2023-02-23T13:32:32.067Z,100374.53
2023-02-23T13:35:00.773Z,100376.34
2023-02-23T13:37:35.002Z,100370.75
2023-02-23T13:40:35.365Z,100371.06
2023-02-23T13:43:17.724Z,100371.81
2023-02-23T13:46:10.588Z,100361.81
2023-02-23T13:48:56.801Z,100359.22
2023-02-23T13:51:30.301Z,100363.13
2023-02-23T13:54:23.012Z,100358.25
2023-02-23T13:56:56.806Z,100355.31
2023-02-23T13:59:36.904Z,100364.06
2023-02-23T14:02:20.843Z,100361.97
2023-02-23T14:04:47.716Z,100357.25
2023-02-23T14:07:23.189Z,100356.44
2023-02-23T14:10:00.129Z,100357.47
2023-02-23T14:12:34.816Z,100357.16
2023-02-23T14:15:37.826Z,100357.34
2023-02-23T14:18:29.031Z,100362.25
2023-02-23T14:21:28.895Z,100361.84
2023-02-23T14:24:25.533Z,100353.84
2023-02-23T14:27:04.628Z,100365.88
2023-02-23T14:29:40.129Z,100354.91
2023-02-23T14:32:12.868Z,100366.66
2023-02-23T14:35:30.807Z,100355.22
2023-02-23T14:38:09.186Z,100350.31
2023-02-23T14:40:42.098Z,100357.59
2023-02-23T14:43:38.272Z,100355.91
2023-02-23T14:46:11.932Z,100362.31
2023-02-23T14:48:42.293Z,100349.09
2023-02-23T14:51:24.781Z,100358.22
2023-02-23T14:53:53.600Z,100353.69
2023-02-23T14:56:24.688Z,100351.91
2023-02-23T14:58:54.997Z,100355.09
2023-02-23T15:01:39.634Z,100357.34
2023-02-23T15:04:16.866Z,100346.16
2023-02-23T15:06:47.049Z,100343.53
2023-02-23T15:09:22.457Z,100349.56
2023-02-23T15:11:54.010Z,100347.03
2023-02-23T15:14:27.864Z,100349.19
2023-02-23T15:16:56.727Z,100345.28
2023-02-23T15:19:27.925Z,100340.78
2023-02-23T15:21:57.736Z,100341.50
2023-02-23T15:24:31.328Z,100336.94
2023-02-23T15:26:58.551Z,100340.97
2023-02-23T15:29:31.523Z,100335.78
2023-02-23T15:32:18.142Z,100335.69
2023-02-23T15:34:45.408Z,100342.06
2023-02-23T15:37:26.075Z,100339.75
2023-02-23T15:40:02.488Z,100337.06
2023-02-23T15:42:38.553Z,100339.41
2023-02-23T15:45:20.001Z,100344.44
2023-02-23T15:47:46.950Z,100338.06
2023-02-23T15:50:27.611Z,100337.63
2023-02-23T15:53:02.086Z,100334.81
2023-02-23T15:55:35.486Z,100335.66
2023-02-23T15:58:26.222Z,100341.78
2023-02-23T16:01:06.159Z,100340.53
2023-02-23T16:03:37.027Z,100337.88
2023-02-23T16:06:05.205Z,100344.41
2023-02-23T16:08:32.025Z,100341.88
2023-02-23T16:11:14.777Z,100343.00
2023-02-23T16:13:45.969Z,100340.00
2023-02-23T16:16:19.458Z,100346.41
2023-02-23T16:18:53.160Z,100339.59
2023-02-23T16:21:25.302Z,100342.88
2023-02-23T16:23:54.649Z,100340.88
2023-02-23T16:26:33.524Z,100337.50
2023-02-23T16:29:02.928Z,100344.16
2023-02-23T16:31:44.857Z,100340.47
2023-02-23T16:34:26.661Z,100345.28
2023-02-23T16:37:01.900Z,100340.75
2023-02-23T16:39:30.500Z,100340.16
2023-02-23T16:42:00.586Z,100346.69
2023-02-23T16:44:41.378Z,100341.72
2023-02-23T16:47:09.710Z,100338.59
2023-02-23T16:49:36.320Z,100348.25
2023-02-23T16:52:12.937Z,100350.50
2023-02-23T16:54:39.523Z,100348.94
2023-02-23T16:57:22.348Z,100347.09
2023-02-23T16:59:51.306Z,100338.44
2023-02-23T17:02:19.506Z,100331.34
2023-02-23T17:04:49.121Z,100324.56
2023-02-23T17:07:17.403Z,100335.72
2023-02-23T17:09:44.520Z,100336.13
2023-02-23T17:12:21.734Z,100327.88
2023-02-23T17:14:49.710Z,100335.75
2023-02-23T17:17:18.073Z,100336.47
2023-02-23T17:19:45.583Z,100338.84
2023-02-23T17:22:13.012Z,100346.72
2023-02-23T17:24:41.095Z,100351.38
2023-02-23T17:27:07.777Z,100343.16
2023-02-23T17:29:34.901Z,100343.16
2023-02-23T17:32:02.511Z,100350.47
2023-02-23T17:34:29.817Z,100351.31
2023-02-23T17:36:56.361Z,100349.97
2023-02-23T17:39:27.950Z,100353.34
2023-02-23T17:41:55.118Z,100353.59
2023-02-23T17:44:21.717Z,100349.47
2023-02-23T17:46:48.550Z,100349.34
2023-02-23T17:49:15.164Z,100352.16
2023-02-23T17:51:42.059Z,100346.31
2023-02-23T17:54:08.802Z,100339.66
2023-02-23T17:56:35.679Z,100338.94
2023-02-23T17:59:02.244Z,100338.09
2023-02-23T18:01:29.031Z,100338.09
2023-02-23T18:03:58.568Z,100343.56
2023-02-23T18:06:25.256Z,100337.38
2023-02-23T18:08:51.805Z,100337.63
2023-02-23T18:11:19.795Z,100333.63
2023-02-23T18:13:47.996Z,100341.94
2023-02-23T18:16:16.067Z,100332.31
2023-02-23T18:18:46.501Z,100325.47
2023-02-23T18:21:18.538Z,100327.97
2023-02-23T18:23:45.878Z,100318.75
2023-02-23T18:26:15.020Z,100318.28
2023-02-23T18:28:44.433Z,100321.34
2023-02-23T18:31:21.112Z,100316.00
2023-02-23T18:33:52.656Z,100319.78
2023-02-23T18:36:35.332Z,100317.22
2023-02-23T18:39:03.043Z,100314.06
2023-02-23T18:41:31.267Z,100318.56
2023-02-23T18:44:02.566Z,100323.22
2023-02-23T18:46:29.626Z,100319.34
2023-02-23T18:48:56.585Z,100322.44
2023-02-23T18:51:25.705Z,100319.16
2023-02-23T18:53:53.512Z,100316.94
2023-02-23T18:56:25.021Z,100315.38
2023-02-23T18:59:04.064Z,100318.91
2023-02-23T19:01:37.610Z,100308.19
2023-02-23T19:04:05.613Z,100311.13
2023-02-23T19:06:33.207Z,100310.50
2023-02-23T19:09:03.370Z,100314.06
2023-02-23T19:11:32.413Z,100313.19
2023-02-23T19:14:02.015Z,100305.88
2023-02-23T19:16:31.261Z,100304.41
2023-02-23T19:18:59.277Z,100303.09
2023-02-23T19:21:26.057Z,100310.91
2023-02-23T19:23:53.966Z,100313.25
2023-02-23T19:26:21.455Z,100321.78
2023-02-23T19:28:48.624Z,100319.84
2023-02-23T19:31:19.692Z,100321.53
2023-02-23T19:33:48.530Z,100317.88
2023-02-23T19:36:17.906Z,100314.09
2023-02-23T19:38:45.571Z,100317.63
2023-02-23T19:41:14.940Z,100314.97
2023-02-23T19:43:41.793Z,100315.06
2023-02-23T19:46:17.264Z,100312.38
2023-02-23T19:48:45.463Z,100317.03
2023-02-23T19:51:13.444Z,100314.69
2023-02-23T19:53:40.672Z,100308.03
2023-02-23T19:56:12.631Z,100312.66
2023-02-23T19:58:43.037Z,100319.94
2023-02-23T20:01:11.827Z,100320.22
2023-02-23T20:03:39.638Z,100320.44
2023-02-23T20:06:07.200Z,100317.75
2023-02-23T20:08:34.353Z,100317.91
2023-02-23T20:11:00.989Z,100318.84
2023-02-23T20:13:27.583Z,100313.84
2023-02-23T20:16:05.567Z,100314.94
2023-02-23T20:18:35.693Z,100308.59
2023-02-23T20:21:17.722Z,100313.63
2023-02-23T20:23:45.954Z,100307.19
2023-02-23T20:26:26.312Z,100310.69
2023-02-23T20:28:54.216Z,100300.84
2023-02-23T20:31:26.579Z,100302.66
2023-02-23T20:33:54.947Z,100290.94
2023-02-23T20:36:23.294Z,100291.69
2023-02-23T20:38:49.976Z,100283.53
2023-02-23T20:41:17.616Z,100279.75
2023-02-23T20:43:44.561Z,100281.31
2023-02-23T20:46:15.771Z,100284.59
2023-02-23T20:48:42.763Z,100277.31
2023-02-23T20:51:12.988Z,100276.72
2023-02-23T20:53:40.697Z,100283.06
2023-02-23T20:56:09.345Z,100279.63
2023-02-23T20:58:36.088Z,100285.75
2023-02-23T21:01:06.830Z,100278.03
2023-02-23T21:03:35.721Z,100277.31
2023-02-23T21:06:02.354Z,100277.81
2023-02-23T21:08:30.437Z,100282.56
2023-02-23T21:10:57.025Z,100288.75
2023-02-23T21:13:26.479Z,100288.91
2023-02-23T21:16:01.064Z,100283.06
2023-02-23T21:18:28.533Z,100278.31
2023-02-23T21:20:56.846Z,100280.00
2023-02-23T21:23:24.626Z,100278.53
2023-02-23T21:25:53.134Z,100282.56
2023-02-23T21:28:20.994Z,100276.34
2023-02-23T21:30:47.725Z,100273.78
2023-02-23T21:33:14.502Z,100276.44
2023-02-23T21:35:41.108Z,100270.47
2023-02-23T21:38:08.369Z,100278.66
2023-02-23T21:40:35.740Z,100272.31
2023-02-23T21:43:06.624Z,100279.88
2023-02-23T21:45:33.265Z,100279.00
2023-02-23T21:47:59.810Z,100267.56
2023-02-23T21:50:26.852Z,100274.63
2023-02-23T21:52:56.101Z,100265.59
2023-02-23T21:55:22.885Z,100262.81
2023-02-23T21:57:51.290Z,100260.25
2023-02-23T22:00:20.965Z,100258.31
2023-02-23T22:02:47.911Z,100263.69
2023-02-23T22:05:16.032Z,100255.50
2023-02-23T22:07:51.801Z,100247.34
2023-02-23T22:10:20.455Z,100252.59
2023-02-23T22:12:47.481Z,100246.25
2023-02-23T22:15:15.928Z,100246.97
2023-02-23T22:17:43.334Z,100252.22
2023-02-23T22:20:10.904Z,100244.31
2023-02-23T22:22:37.504Z,100241.50
2023-02-23T22:25:06.155Z,100240.41
2023-02-23T22:27:33.048Z,100239.56
2023-02-23T22:30:01.485Z,100223.50
2023-02-23T22:32:32.705Z,100234.22
2023-02-23T22:35:01.023Z,100228.72
2023-02-23T22:37:31.543Z,100226.91
2023-02-23T22:40:01.354Z,100219.69
2023-02-23T22:42:35.349Z,100231.41
2023-02-23T22:45:02.062Z,100229.59
2023-02-23T22:47:28.659Z,100224.22
2023-02-23T22:49:55.418Z,100217.88
2023-02-23T22:52:21.984Z,100219.47
2023-02-23T22:54:48.562Z,100214.09
2023-02-23T22:57:15.179Z,100213.50
2023-02-23T22:59:54.498Z,100201.91
2023-02-23T23:02:24.054Z,100202.78
2023-02-23T23:04:54.177Z,100210.22
2023-02-23T23:07:20.753Z,100204.38
2023-02-23T23:09:47.362Z,100212.41
2023-02-23T23:12:14.174Z,100206.19
2023-02-23T23:14:40.797Z,100206.34
2023-02-23T23:17:09.485Z,100196.56
2023-02-23T23:19:39.129Z,100197.56
2023-02-23T23:22:06.643Z,100203.88
2023-02-23T23:24:33.237Z,100200.50
2023-02-23T23:27:01.003Z,100201.31
2023-02-23T23:29:32.432Z,100194.16
2023-02-23T23:32:01.635Z,100196.72
2023-02-23T23:34:28.468Z,100196.06
2023-02-23T23:36:55.479Z,100188.19
2023-02-23T23:39:23.828Z,100186.59
2023-02-23T23:41:50.774Z,100174.03
2023-02-23T23:44:19.872Z,100172.22
2023-02-23T23:46:47.949Z,100170.75
2023-02-23T23:49:17.226Z,100165.53
2023-02-23T23:51:56.212Z,100167.25
2023-02-23T23:54:26.848Z,100174.53
2023-02-23T23:56:54.119Z,100170.03
2023-02-23T23:59:22.813Z,100170.28
